Time;durP1;ratioP1;P1;durP2;ratioP2;P2;SDS_P1;SDS_P2;PMS_P1;PMS_P2;Temp;Humidity;BMP_temperature;BMP_pressure;BME280_temperature;BME280_humidity;BME280_pressure;Samples;Min_cycle;Max_cycle;Signal;HPM_P1;HPM_P2
2021/09/11 00:00:54;;;;;;;79.47;27.10;;;;;;;;;;4952295;28;20544;-88
2021/09/11 00:03:22;;;;;;;76.55;25.58;;;;;;;;;;4960900;28;20122;-88
2021/09/11 00:05:58;;;;;;;73.82;26.45;;;;;;;;;;4960554;28;20038;-90
2021/09/11 00:08:52;;;;;;;74.75;26.55;;;;;;;;;;4950669;28;20038;-93
2021/09/11 00:11:22;;;;;;;80.65;26.58;;;;;;;;;;4976679;28;20640;-86
2021/09/11 00:14:03;;;;;;;;;;;;;;;;;;;;;
2021/09/11 00:16:44;;;;;;;73.63;27.08;;;;;;;;;;4993934;28;20045;-90
2021/09/11 00:19:25;;;;;;;82.53;26.73;;;;;;;;;;4975159;28;20030;-89
2021/09/11 00:22:23;;;;;;;67.43;25.85;;;;;;;;;;4984571;28;20111;-88
2021/09/11 00:24:51;;;;;;;125.75;29.33;;;;;;;;;;4959488;28;20612;-89
2021/09/11 00:27:25;;;;;;;77.30;26.58;;;;;;;;;;4961459;28;20126;-88
2021/09/11 00:29:51;;;;;;;77.43;25.25;;;;;;;;;;4992682;28;20034;-95
2021/09/11 00:32:23;;;;;;;66.35;23.13;;;;;;;;;;4960011;28;20060;-92
2021/09/11 00:34:50;;;;;;;61.40;22.35;;;;;;;;;;4974735;28;20125;-90
2021/09/11 00:37:16;;;;;;;62.38;24.13;;;;;;;;;;4968487;28;20042;-91
2021/09/11 00:39:46;;;;;;;63.10;22.27;;;;;;;;;;4943787;28;20038;-89
2021/09/11 00:42:16;;;;;;;54.60;22.55;;;;;;;;;;4949772;28;20068;-90
2021/09/11 00:44:49;;;;;;;46.42;19.42;;;;;;;;;;4989602;28;20031;-88
2021/09/11 00:47:15;;;;;;;66.18;22.58;;;;;;;;;;4980659;28;20042;-90
2021/09/11 00:49:40;;;;;;;75.63;24.40;;;;;;;;;;4961590;28;20034;-91
2021/09/11 00:52:11;;;;;;;78.80;23.08;;;;;;;;;;4978719;28;20070;-87
2021/09/11 00:54:36;;;;;;;70.55;24.20;;;;;;;;;;4962371;28;20079;-90
2021/09/11 00:57:02;;;;;;;82.45;26.40;;;;;;;;;;4962224;28;20400;-89
2021/09/11 00:59:37;;;;;;;87.95;28.20;;;;;;;;;;4975430;28;20440;-91
2021/09/11 01:02:07;;;;;;;89.15;28.85;;;;;;;;;;4985955;28;20034;-90
2021/09/11 01:04:59;;;;;;;85.20;27.77;;;;;;;;;;4995409;28;20061;-90
2021/09/11 01:07:42;;;;;;;83.70;26.55;;;;;;;;;;4973179;28;20371;-90
2021/09/11 01:10:08;;;;;;;87.68;27.23;;;;;;;;;;4990464;28;20022;-90
2021/09/11 01:12:39;;;;;;;76.13;27.05;;;;;;;;;;4980749;28;20015;-87
2021/09/11 01:15:07;;;;;;;81.45;27.63;;;;;;;;;;5011835;28;20065;-89
2021/09/11 01:17:40;;;;;;;79.38;25.65;;;;;;;;;;4994391;28;20038;-88
2021/09/11 01:20:06;;;;;;;78.13;26.58;;;;;;;;;;5011130;28;20038;-88
2021/09/11 01:22:32;;;;;;;71.47;24.58;;;;;;;;;;4999136;28;20132;-90
2021/09/11 01:25:05;;;;;;;72.45;24.98;;;;;;;;;;4992484;28;20026;-88
2021/09/11 01:27:33;;;;;;;78.90;25.33;;;;;;;;;;4976672;28;20023;-89
2021/09/11 01:30:08;;;;;;;75.82;23.85;;;;;;;;;;4993362;28;20046;-88
2021/09/11 01:32:36;;;;;;;78.65;24.23;;;;;;;;;;4991963;28;20185;-87
2021/09/11 01:35:13;;;;;;;64.28;23.25;;;;;;;;;;4992596;28;20022;-90
2021/09/11 01:37:51;;;;;;;71.03;23.65;;;;;;;;;;4975293;28;20049;-88
2021/09/11 01:40:18;;;;;;;65.07;22.75;;;;;;;;;;4990399;28;20046;-90
2021/09/11 01:42:45;;;;;;;66.30;21.25;;;;;;;;;;4988053;28;20026;-89
2021/09/11 01:45:12;;;;;;;64.03;22.38;;;;;;;;;;4972553;28;20647;-87
2021/09/11 01:47:44;;;;;;;57.58;19.98;;;;;;;;;;4989258;28;20106;-90
2021/09/11 01:50:20;;;;;;;56.30;19.13;;;;;;;;;;4989152;28;20030;-90
2021/09/11 01:52:46;;;;;;;55.13;18.40;;;;;;;;;;4993215;28;20588;-90
2021/09/11 01:55:17;;;;;;;53.42;19.05;;;;;;;;;;5003202;28;20022;-88
2021/09/11 01:57:43;;;;;;;58.05;19.40;;;;;;;;;;4996933;28;20428;-88
2021/09/11 02:00:10;;;;;;;49.45;18.15;;;;;;;;;;4981398;28;20130;-90
2021/09/11 02:02:45;;;;;;;54.97;19.30;;;;;;;;;;4994232;28;20069;-91
2021/09/11 02:05:22;;;;;;;50.25;18.20;;;;;;;;;;5005134;28;20103;-89
2021/09/11 02:07:47;;;;;;;55.88;19.83;;;;;;;;;;4975129;28;20034;-91
2021/09/11 02:10:21;;;;;;;52.05;18.85;;;;;;;;;;4992203;28;20341;-90
2021/09/11 02:12:48;;;;;;;;;;;;;;;;;;4994761;28;20033;-87
2021/09/11 02:15:14;;;;;;;47.90;18.50;;;;;;;;;;4993650;28;19909;-91
2021/09/11 02:17:46;;;;;;;50.13;18.65;;;;;;;;;;4979629;28;20033;-90
2021/09/11 02:20:13;;;;;;;58.38;17.92;;;;;;;;;;4993010;28;20038;-88
2021/09/11 02:22:39;;;;;;;52.83;18.90;;;;;;;;;;4993341;28;20037;-89
2021/09/11 02:25:08;;;;;;;49.33;17.42;;;;;;;;;;4973898;28;20034;-89
2021/09/11 02:27:33;;;;;;;55.60;19.05;;;;;;;;;;4974280;28;20098;-89
2021/09/11 02:30:00;;;;;;;47.10;18.48;;;;;;;;;;4978552;28;20037;-89
2021/09/11 02:32:35;;;;;;;54.83;19.83;;;;;;;;;;4956473;28;20050;-91
2021/09/11 02:35:01;;;;;;;52.65;20.13;;;;;;;;;;5008958;28;20038;-91
2021/09/11 02:37:26;;;;;;;58.47;20.65;;;;;;;;;;4998248;28;20052;-87
2021/09/11 02:39:53;;;;;;;49.78;18.50;;;;;;;;;;4984649;28;20089;-90
2021/09/11 02:42:20;;;;;;;59.85;20.05;;;;;;;;;;5009792;28;20038;-88
2021/09/11 02:44:46;;;;;;;54.30;19.52;;;;;;;;;;4993042;28;20037;-89
2021/09/11 02:47:20;;;;;;;53.08;18.63;;;;;;;;;;4996665;28;20030;-89
2021/09/11 02:49:45;;;;;;;63.63;20.52;;;;;;;;;;4976093;28;20073;-88
2021/09/11 02:52:11;;;;;;;66.25;19.58;;;;;;;;;;4991220;28;20455;-91
2021/09/11 02:54:39;;;;;;;60.88;20.58;;;;;;;;;;4959633;28;20030;-88
2021/09/11 02:57:08;;;;;;;55.42;18.92;;;;;;;;;;4995568;28;20015;-88
2021/09/11 02:59:34;;;;;;;59.25;19.48;;;;;;;;;;4978745;28;20333;-88
2021/09/11 03:02:05;;;;;;;50.83;20.05;;;;;;;;;;4991919;28;20481;-88
2021/09/11 03:04:34;;;;;;;69.60;21.05;;;;;;;;;;4994374;28;20064;-90
2021/09/11 03:07:06;;;;;;;54.47;18.40;;;;;;;;;;4994355;28;20041;-90
2021/09/11 03:09:36;;;;;;;65.30;20.40;;;;;;;;;;4987339;28;20038;-88
2021/09/11 03:12:10;;;;;;;58.63;19.05;;;;;;;;;;4996014;28;20034;-89
2021/09/11 03:14:36;;;;;;;57.92;19.13;;;;;;;;;;4985437;28;20034;-88
2021/09/11 03:17:11;;;;;;;70.70;21.05;;;;;;;;;;4979296;28;20038;-90
2021/09/11 03:19:39;;;;;;;57.88;21.40;;;;;;;;;;4989489;28;20034;-88
2021/09/11 03:22:15;;;;;;;55.78;19.17;;;;;;;;;;4971894;28;20022;-89
2021/09/11 03:24:42;;;;;;;64.47;22.02;;;;;;;;;;5003431;28;20100;-90
2021/09/11 03:27:15;;;;;;;66.53;21.35;;;;;;;;;;5003937;28;20083;-89
2021/09/11 03:29:40;;;;;;;71.18;21.58;;;;;;;;;;4982500;28;20042;-90
2021/09/11 03:32:06;;;;;;;60.90;22.27;;;;;;;;;;4995043;28;20026;-89
2021/09/11 03:34:37;;;;;;;74.30;22.20;;;;;;;;;;4994352;28;20207;-89
2021/09/11 03:37:03;;;;;;;71.32;21.85;;;;;;;;;;4975493;28;20030;-92
2021/09/11 03:39:32;;;;;;;72.80;23.40;;;;;;;;;;4964519;28;20029;-89
2021/09/11 03:42:06;;;;;;;75.82;21.70;;;;;;;;;;4995477;28;20466;-88
2021/09/11 03:44:41;;;;;;;76.65;22.10;;;;;;;;;;4994005;28;20034;-88
2021/09/11 03:47:13;;;;;;;74.70;23.25;;;;;;;;;;4980536;28;20122;-88
2021/09/11 03:49:48;;;;;;;66.78;22.80;;;;;;;;;;4996834;28;20061;-89
2021/09/11 03:52:13;;;;;;;79.20;21.80;;;;;;;;;;4988831;28;20057;-89
2021/09/11 03:57:33;;;;;;;84.75;22.77;;;;;;;;;;5008152;28;20726;-89
2021/09/11 04:00:00;;;;;;;69.60;23.20;;;;;;;;;;4977376;28;20045;-90
2021/09/11 04:02:29;;;;;;;69.75;22.23;;;;;;;;;;4995031;28;20113;-90
2021/09/11 04:04:54;;;;;;;74.53;21.25;;;;;;;;;;4973944;28;20042;-92
2021/09/11 04:07:23;;;;;;;77.47;24.15;;;;;;;;;;4981924;28;20447;-91
2021/09/11 04:13:05;;;;;;;64.45;22.30;;;;;;;;;;4988199;28;20058;-88
2021/09/11 04:15:57;;;;;;;74.70;22.33;;;;;;;;;;4953496;28;20113;-90
2021/09/11 04:18:23;;;;;;;70.05;21.73;;;;;;;;;;4986390;28;20033;-88
2021/09/11 04:21:08;;;;;;;;;;;;;;;;;;;;;
2021/09/11 04:23:37;;;;;;;80.10;22.63;;;;;;;;;;4992330;28;20551;-90
2021/09/11 04:26:04;;;;;;;75.53;22.77;;;;;;;;;;4975994;28;20022;-91
2021/09/11 04:28:30;;;;;;;75.78;23.20;;;;;;;;;;4959362;28;20088;-90
2021/09/11 04:31:11;;;;;;;76.03;22.48;;;;;;;;;;4971366;28;20072;-90
2021/09/11 04:33:41;;;;;;;71.75;23.17;;;;;;;;;;4986177;28;20039;-90
2021/09/11 04:36:11;;;;;;;80.68;22.52;;;;;;;;;;4976487;28;20134;-89
2021/09/11 04:38:37;;;;;;;73.30;21.23;;;;;;;;;;4954738;28;20165;-89
2021/09/11 04:41:12;;;;;;;61.55;19.63;;;;;;;;;;4974053;28;20034;-90
2021/09/11 04:43:39;;;;;;;72.28;20.95;;;;;;;;;;4977915;28;20129;-92
2021/09/11 04:46:14;;;;;;;59.97;19.50;;;;;;;;;;5015725;28;20133;-90
2021/09/11 04:48:50;;;;;;;67.72;19.17;;;;;;;;;;5002054;28;20060;-90
2021/09/11 04:51:21;;;;;;;66.05;19.65;;;;;;;;;;5015572;28;20056;-90
2021/09/11 04:53:50;;;;;;;60.08;18.63;;;;;;;;;;5006005;28;20029;-89
2021/09/11 04:56:30;;;;;;;67.25;18.20;;;;;;;;;;4994030;28;20093;-88
2021/09/11 04:58:56;;;;;;;61.78;18.15;;;;;;;;;;5016436;28;20064;-89
2021/09/11 05:01:31;;;;;;;55.50;18.33;;;;;;;;;;4997333;28;20034;-89
2021/09/11 05:03:57;;;;;;;55.58;15.70;;;;;;;;;;4996666;28;20030;-90
2021/09/11 05:06:22;;;;;;;58.33;16.13;;;;;;;;;;4997306;28;20073;-89
2021/09/11 05:08:57;;;;;;;67.50;16.98;;;;;;;;;;5014151;28;20042;-88
2021/09/11 05:11:37;;;;;;;48.45;16.30;;;;;;;;;;5003962;28;20065;-87
2021/09/11 05:14:08;;;;;;;54.90;16.60;;;;;;;;;;5001210;28;20029;-89
2021/09/11 05:16:44;;;;;;;54.28;15.05;;;;;;;;;;5009404;28;20065;-88
2021/09/11 05:19:13;;;;;;;50.88;14.88;;;;;;;;;;4998637;28;20041;-85
2021/09/11 05:21:41;;;;;;;47.17;15.02;;;;;;;;;;4979707;28;20030;-88
2021/09/11 05:24:50;;;;;;;45.92;14.38;;;;;;;;;;4961351;28;20030;-89
2021/09/11 05:27:28;;;;;;;47.33;13.43;;;;;;;;;;4973129;28;20047;-89
2021/09/11 05:33:08;;;;;;;39.40;13.77;;;;;;;;;;4966886;28;20039;-90
2021/09/11 05:36:06;;;;;;;;;;;;;;;;;;;;;
2021/09/11 05:38:52;;;;;;;40.75;14.10;;;;;;;;;;4973636;28;20053;-90
2021/09/11 05:41:40;;;;;;;43.05;14.55;;;;;;;;;;4957010;28;20034;-89
2021/09/11 05:44:13;;;;;;;41.08;14.15;;;;;;;;;;4972306;28;20069;-88
2021/09/11 05:46:53;;;;;;;35.30;12.35;;;;;;;;;;4970821;28;20109;-87
2021/09/11 05:49:59;;;;;;;;;;;;;;;;;;;;;
2021/09/11 06:03:04;;;;;;;41.00;13.48;;;;;;;;;;4991616;28;20034;-90
2021/09/11 06:05:30;;;;;;;46.55;13.55;;;;;;;;;;4986269;28;20040;-88
2021/09/11 06:08:00;;;;;;;41.17;14.48;;;;;;;;;;4975397;28;20015;-90
2021/09/11 06:10:26;;;;;;;37.90;14.35;;;;;;;;;;5013642;28;20094;-86
2021/09/11 06:12:51;;;;;;;45.63;14.50;;;;;;;;;;4982613;28;20468;-88
2021/09/11 06:15:22;;;;;;;41.22;14.52;;;;;;;;;;4997961;28;20444;-92
2021/09/11 06:17:47;;;;;;;41.42;14.05;;;;;;;;;;4978388;28;20026;-91
2021/09/11 06:20:13;;;;;;;46.28;15.13;;;;;;;;;;4977276;28;20367;-89
2021/09/11 06:22:39;;;;;;;41.80;14.98;;;;;;;;;;4966413;28;20090;-89
2021/09/11 06:25:09;;;;;;;40.17;14.45;;;;;;;;;;4975809;28;20022;-88
2021/09/11 06:27:35;;;;;;;36.92;14.43;;;;;;;;;;4994658;28;20117;-86
2021/09/11 06:30:08;;;;;;;39.15;14.98;;;;;;;;;;4997407;28;20356;-91
2021/09/11 06:32:35;;;;;;;48.58;14.50;;;;;;;;;;4986676;28;20070;-90
2021/09/11 06:35:02;;;;;;;39.13;14.88;;;;;;;;;;4979505;28;20065;-89
2021/09/11 06:37:45;;;;;;;27.80;12.45;;;;;;;;;;4984515;28;20443;-90
2021/09/11 06:40:13;;;;;;;43.55;15.07;;;;;;;;;;4999141;28;20030;-87
2021/09/11 06:42:39;;;;;;;41.72;14.98;;;;;;;;;;4983169;28;20108;-89
2021/09/11 06:45:05;;;;;;;26.98;13.57;;;;;;;;;;4995737;28;20479;-91
2021/09/11 06:47:38;;;;;;;29.98;14.32;;;;;;;;;;4996912;28;20022;-89
2021/09/11 06:50:04;;;;;;;31.23;13.73;;;;;;;;;;4975093;28;20038;-89
2021/09/11 06:52:30;;;;;;;31.90;13.88;;;;;;;;;;4998614;28;20625;-88
2021/09/11 06:54:59;;;;;;;42.97;14.93;;;;;;;;;;4984389;28;20034;-88
2021/09/11 06:57:24;;;;;;;30.20;13.25;;;;;;;;;;5001530;28;20053;-88
2021/09/11 07:00:00;;;;;;;30.50;15.63;;;;;;;;;;5000843;28;20018;-88
2021/09/11 07:02:25;;;;;;;38.75;14.82;;;;;;;;;;5000092;28;20057;-88
2021/09/11 07:04:54;;;;;;;30.48;14.10;;;;;;;;;;4998724;28;20049;-88
2021/09/11 07:07:24;;;;;;;35.83;13.55;;;;;;;;;;4981301;28;20099;-88
2021/09/11 07:09:49;;;;;;;38.28;16.27;;;;;;;;;;4983525;28;20064;-89
2021/09/11 07:12:16;;;;;;;39.60;14.57;;;;;;;;;;4994263;28;20121;-91
2021/09/11 07:14:50;;;;;;;31.05;14.43;;;;;;;;;;4980452;28;20049;-87
2021/09/11 07:17:15;;;;;;;31.17;14.88;;;;;;;;;;4975418;28;20065;-90
2021/09/11 07:19:40;;;;;;;33.40;15.57;;;;;;;;;;4983422;28;20030;-89
2021/09/11 07:22:14;;;;;;;33.13;15.45;;;;;;;;;;4998473;28;20030;-91
2021/09/11 07:24:39;;;;;;;25.90;14.35;;;;;;;;;;4993599;28;20030;-89
2021/09/11 07:27:05;;;;;;;28.15;14.63;;;;;;;;;;4998656;28;20034;-91
2021/09/11 07:29:33;;;;;;;27.65;14.43;;;;;;;;;;4994852;28;20041;-88
2021/09/11 07:32:01;;;;;;;28.65;14.15;;;;;;;;;;4981636;28;20014;-87
2021/09/11 07:34:26;;;;;;;30.85;14.65;;;;;;;;;;5000052;28;20089;-87
2021/09/11 07:36:58;;;;;;;26.92;13.73;;;;;;;;;;4972708;28;20039;-88
2021/09/11 07:39:24;;;;;;;29.60;14.73;;;;;;;;;;5012474;28;20043;-87
2021/09/11 07:41:51;;;;;;;29.25;14.10;;;;;;;;;;4996568;28;20037;-88
2021/09/11 07:44:25;;;;;;;22.35;13.68;;;;;;;;;;4995059;28;20497;-88
2021/09/11 07:46:50;;;;;;;25.38;15.20;;;;;;;;;;4979789;28;20030;-92
2021/09/11 07:49:23;;;;;;;30.73;14.48;;;;;;;;;;4978797;28;20065;-90
2021/09/11 07:51:49;;;;;;;23.33;13.73;;;;;;;;;;4978096;28;20053;-90
2021/09/11 07:54:15;;;;;;;28.55;15.07;;;;;;;;;;4981864;28;20026;-92
2021/09/11 07:56:42;;;;;;;35.00;15.57;;;;;;;;;;4988248;28;20049;-90
2021/09/11 07:59:12;;;;;;;29.08;14.82;;;;;;;;;;5008936;28;20078;-88
2021/09/11 08:01:37;;;;;;;35.50;16.63;;;;;;;;;;5003638;28;20141;-89
2021/09/11 08:04:10;;;;;;;34.28;16.63;;;;;;;;;;4983829;28;20104;-88
2021/09/11 08:06:36;;;;;;;31.98;15.73;;;;;;;;;;5004070;28;20026;-88
2021/09/11 08:09:02;;;;;;;32.63;16.60;;;;;;;;;;5002981;28;20109;-89
2021/09/11 08:11:30;;;;;;;26.35;16.23;;;;;;;;;;4982407;28;20018;-87
2021/09/11 08:13:55;;;;;;;32.88;17.73;;;;;;;;;;4984680;28;20038;-90
2021/09/11 08:16:21;;;;;;;27.15;15.45;;;;;;;;;;5005088;28;20038;-89
2021/09/11 08:18:46;;;;;;;40.50;17.38;;;;;;;;;;4968146;28;20145;-86
2021/09/11 08:21:16;;;;;;;46.67;17.45;;;;;;;;;;4997118;28;20034;-89
2021/09/11 08:23:43;;;;;;;33.97;18.30;;;;;;;;;;4995857;28;20050;-87
2021/09/11 08:26:09;;;;;;;39.58;17.25;;;;;;;;;;4978597;28;20046;-89
2021/09/11 08:28:37;;;;;;;42.58;17.08;;;;;;;;;;4990069;28;20050;-87
2021/09/11 08:31:03;;;;;;;33.97;16.83;;;;;;;;;;4980285;28;20153;-89
2021/09/11 08:33:28;;;;;;;39.20;17.65;;;;;;;;;;4979608;28;20074;-91
2021/09/11 08:36:03;;;;;;;32.70;16.85;;;;;;;;;;4978441;28;22042;-88
2021/09/11 08:38:34;;;;;;;37.38;16.15;;;;;;;;;;4977005;28;20039;-90
2021/09/11 08:41:06;;;;;;;28.13;15.73;;;;;;;;;;4994769;28;20022;-88
2021/09/11 08:43:33;;;;;;;34.22;15.52;;;;;;;;;;4995104;28;20029;-89
2021/09/11 08:46:06;;;;;;;28.60;15.45;;;;;;;;;;4980318;28;20022;-91
2021/09/11 08:48:32;;;;;;;31.75;15.55;;;;;;;;;;4979358;28;20044;-88
2021/09/11 08:50:57;;;;;;;22.70;15.40;;;;;;;;;;4979054;28;20109;-88
2021/09/11 08:53:32;;;;;;;28.08;16.33;;;;;;;;;;4979229;28;20026;-89
2021/09/11 08:55:59;;;;;;;32.35;15.98;;;;;;;;;;4969465;28;20474;-88
2021/09/11 08:58:32;;;;;;;32.10;15.10;;;;;;;;;;4995834;28;20030;-88
2021/09/11 09:01:01;;;;;;;31.13;15.65;;;;;;;;;;5001323;28;20057;-86
2021/09/11 09:03:40;;;;;;;25.10;15.40;;;;;;;;;;4997918;28;20034;-91
2021/09/11 09:06:12;;;;;;;30.70;15.43;;;;;;;;;;4994548;28;20043;-89
2021/09/11 09:08:38;;;;;;;26.58;14.60;;;;;;;;;;4992182;28;20028;-88
2021/09/11 09:11:19;;;;;;;28.35;14.40;;;;;;;;;;4981309;28;20138;-90
2021/09/11 09:14:08;;;;;;;24.10;14.65;;;;;;;;;;5009737;28;20039;-91
2021/09/11 09:16:38;;;;;;;26.48;14.80;;;;;;;;;;4990297;28;20480;-89
2021/09/11 09:19:24;;;;;;;22.77;14.60;;;;;;;;;;5010090;28;20014;-90
2021/09/11 09:22:00;;;;;;;29.98;16.38;;;;;;;;;;4984346;28;20926;-90
2021/09/11 09:24:31;;;;;;;26.38;14.77;;;;;;;;;;4995607;28;20030;-91
2021/09/11 09:27:06;;;;;;;25.27;14.73;;;;;;;;;;4990599;28;20052;-90
2021/09/11 09:29:45;;;;;;;29.50;15.57;;;;;;;;;;5014547;28;20031;-91
2021/09/11 09:32:12;;;;;;;29.67;14.50;;;;;;;;;;4994130;28;20022;-89
2021/09/11 09:34:53;;;;;;;23.20;13.63;;;;;;;;;;4977438;28;20022;-89
2021/09/11 09:37:29;;;;;;;29.60;14.75;;;;;;;;;;4954581;28;20051;-88
2021/09/11 09:39:54;;;;;;;28.17;13.95;;;;;;;;;;4963800;28;20046;-90
2021/09/11 09:42:32;;;;;;;27.30;14.07;;;;;;;;;;5011652;28;20124;-90
2021/09/11 09:45:33;;;;;;;23.00;13.10;;;;;;;;;;4997487;28;20510;-88
2021/09/11 09:48:22;;;;;;;;;;;;;;;;;;;;;
2021/09/11 09:58:07;;;;;;;19.80;13.32;;;;;;;;;;4872672;29;20044;-88
2021/09/11 10:00:44;;;;;;;27.73;14.35;;;;;;;;;;4863999;29;20038;-90
2021/09/11 10:03:09;;;;;;;25.77;13.48;;;;;;;;;;4940584;28;20049;-92
2021/09/11 10:05:38;;;;;;;27.98;13.85;;;;;;;;;;4953082;28;20054;-92
2021/09/11 10:08:10;;;;;;;21.58;13.13;;;;;;;;;;4969237;28;20046;-88
2021/09/11 10:10:40;;;;;;;27.48;14.15;;;;;;;;;;4951016;28;20030;-90
2021/09/11 10:13:28;;;;;;;31.08;12.80;;;;;;;;;;4989683;28;20038;-88
2021/09/11 10:15:55;;;;;;;23.27;13.57;;;;;;;;;;5005691;28;20034;-90
2021/09/11 10:18:30;;;;;;;22.38;13.75;;;;;;;;;;5008941;28;20033;-89
2021/09/11 10:21:14;;;;;;;24.10;12.90;;;;;;;;;;4995905;28;20030;-87
2021/09/11 10:23:43;;;;;;;21.45;12.45;;;;;;;;;;4975963;28;20094;-91
2021/09/11 10:26:45;;;;;;;26.15;11.45;;;;;;;;;;4999724;28;20083;-90
2021/09/11 10:29:29;;;;;;;21.05;12.07;;;;;;;;;;4995717;28;21051;-89
2021/09/11 10:32:01;;;;;;;19.20;11.43;;;;;;;;;;4974472;28;20026;-89
2021/09/11 10:34:52;;;;;;;18.52;11.27;;;;;;;;;;5003505;28;20046;-92
2021/09/11 10:37:40;;;;;;;26.80;11.18;;;;;;;;;;4999010;28;20049;-90
2021/09/11 10:40:32;;;;;;;15.93;10.52;;;;;;;;;;5003590;28;20058;-89
2021/09/11 10:43:04;;;;;;;15.55;10.18;;;;;;;;;;5003402;28;20045;-91
2021/09/11 10:46:02;;;;;;;17.20;10.80;;;;;;;;;;5004807;28;20118;-93
2021/09/11 10:48:48;;;;;;;25.25;10.93;;;;;;;;;;4992770;28;20068;-91
2021/09/11 10:51:24;;;;;;;20.08;10.20;;;;;;;;;;5004686;28;20049;-90
2021/09/11 10:54:10;;;;;;;19.25;10.27;;;;;;;;;;5003735;28;20029;-92
2021/09/11 10:56:59;;;;;;;18.33;10.77;;;;;;;;;;5002939;28;20041;-88
2021/09/11 10:59:58;;;;;;;17.05;10.05;;;;;;;;;;5004225;28;20041;-89
2021/09/11 11:02:25;;;;;;;13.30;8.95;;;;;;;;;;5006912;28;20129;-89
2021/09/11 11:04:52;;;;;;;15.90;9.13;;;;;;;;;;4987234;28;20378;-92
2021/09/11 11:07:26;;;;;;;23.15;10.40;;;;;;;;;;5005324;28;20129;-91
2021/09/11 11:10:22;;;;;;;14.88;9.18;;;;;;;;;;5004662;28;20026;-91
2021/09/11 11:13:32;;;;;;;19.30;10.23;;;;;;;;;;4967101;28;20034;-89
2021/09/11 11:16:09;;;;;;;15.95;9.57;;;;;;;;;;4948227;29;20126;-90
2021/09/11 11:19:08;;;;;;;13.13;8.32;;;;;;;;;;4964251;28;20043;-89
2021/09/11 11:21:40;;;;;;;14.18;8.63;;;;;;;;;;4964447;28;20050;-91
2021/09/11 11:24:12;;;;;;;13.55;8.55;;;;;;;;;;4944542;28;20035;-90
2021/09/11 11:26:42;;;;;;;17.67;9.25;;;;;;;;;;4960701;28;20573;-91
2021/09/11 11:29:35;;;;;;;16.42;8.55;;;;;;;;;;4946073;29;20086;-90
2021/09/11 11:32:03;;;;;;;18.45;8.57;;;;;;;;;;4931333;28;20099;-88
2021/09/11 11:34:35;;;;;;;14.27;8.27;;;;;;;;;;4956461;29;20121;-89
2021/09/11 11:37:01;;;;;;;17.80;8.18;;;;;;;;;;4965586;28;20026;-90
2021/09/11 11:39:37;;;;;;;14.55;8.05;;;;;;;;;;4947268;29;20062;-90
2021/09/11 11:42:08;;;;;;;14.05;8.82;;;;;;;;;;4932377;28;20482;-90
2021/09/11 11:44:58;;;;;;;10.90;7.75;;;;;;;;;;4978283;28;20097;-92
2021/09/11 11:47:53;;;;;;;15.38;7.28;;;;;;;;;;4976751;28;20054;-92
2021/09/11 11:50:49;;;;;;;14.27;6.70;;;;;;;;;;4978357;28;20042;-91
2021/09/11 11:53:21;;;;;;;13.52;7.05;;;;;;;;;;4945898;28;20043;-89
2021/09/11 11:56:11;;;;;;;16.35;7.40;;;;;;;;;;4998530;28;20466;-91
2021/09/11 11:58:40;;;;;;;11.55;7.75;;;;;;;;;;4986267;28;20046;-88
2021/09/11 12:01:11;;;;;;;15.23;8.48;;;;;;;;;;4999586;28;20030;-91
2021/09/11 12:03:48;;;;;;;17.45;8.25;;;;;;;;;;4998399;28;20026;-90
2021/09/11 12:06:25;;;;;;;19.38;7.32;;;;;;;;;;4996355;28;20042;-87
2021/09/11 12:08:51;;;;;;;16.05;8.07;;;;;;;;;;4989959;28;20034;-91
2021/09/11 12:11:29;;;;;;;11.98;7.35;;;;;;;;;;4997234;28;20022;-94
2021/09/11 12:14:00;;;;;;;14.45;7.32;;;;;;;;;;4982683;28;20042;-88
2021/09/11 12:16:35;;;;;;;9.82;6.28;;;;;;;;;;4994051;28;20039;-92
2021/09/11 12:19:15;;;;;;;8.73;5.80;;;;;;;;;;4995383;28;20610;-92
2021/09/11 12:21:42;;;;;;;12.02;6.45;;;;;;;;;;4994492;28;20447;-88
2021/09/11 12:24:24;;;;;;;9.85;5.75;;;;;;;;;;4961094;28;20124;-89
2021/09/11 12:27:07;;;;;;;11.63;6.57;;;;;;;;;;4977714;28;22115;-91
2021/09/11 12:29:41;;;;;;;16.77;7.15;;;;;;;;;;4986324;28;20038;-90
2021/09/11 12:32:23;;;;;;;13.55;7.35;;;;;;;;;;4948283;28;20117;-88
2021/09/11 12:34:49;;;;;;;17.73;7.22;;;;;;;;;;4978801;28;20034;-92
2021/09/11 12:37:58;;;;;;;12.45;7.13;;;;;;;;;;4980660;28;20023;-89
2021/09/11 12:40:24;;;;;;;13.25;6.20;;;;;;;;;;4983685;28;20042;-90
2021/09/11 12:42:51;;;;;;;15.00;6.00;;;;;;;;;;4978336;28;20049;-93
2021/09/11 12:45:22;;;;;;;11.13;6.93;;;;;;;;;;4997948;28;20089;-93
2021/09/11 12:47:48;;;;;;;9.68;6.68;;;;;;;;;;4981691;28;20038;-90
2021/09/11 12:50:27;;;;;;;13.40;7.22;;;;;;;;;;4949287;28;20042;-92
2021/09/11 12:52:53;;;;;;;12.48;6.68;;;;;;;;;;4994482;28;20034;-91
2021/09/11 12:55:20;;;;;;;15.02;7.45;;;;;;;;;;4964831;28;20527;-92
2021/09/11 12:57:52;;;;;;;11.63;6.50;;;;;;;;;;5001723;28;20026;-89
2021/09/11 13:00:18;;;;;;;13.57;7.20;;;;;;;;;;5003370;28;20124;-89
2021/09/11 13:02:50;;;;;;;13.25;6.97;;;;;;;;;;4984321;28;20030;-92
2021/09/11 13:08:51;;;;;;;14.00;6.93;;;;;;;;;;4993089;28;20129;-90
2021/09/11 13:11:22;;;;;;;11.27;6.63;;;;;;;;;;4962564;28;20213;-93
2021/09/11 13:13:48;;;;;;;11.68;7.25;;;;;;;;;;4960093;28;20030;-91
2021/09/11 13:16:23;;;;;;;14.48;8.82;;;;;;;;;;4977942;28;20037;-92
2021/09/11 13:18:59;;;;;;;13.75;8.65;;;;;;;;;;4974536;28;20045;-93
2021/09/11 13:21:46;;;;;;;89.20;15.18;;;;;;;;;;4980915;28;20034;-92
2021/09/11 13:24:18;;;;;;;12.98;4.22;;;;;;;;;;4992475;28;20034;-91
2021/09/11 13:27:03;;;;;;;6.03;3.58;;;;;;;;;;4935789;29;20055;-89
2021/09/11 13:29:29;;;;;;;12.52;5.40;;;;;;;;;;4937577;28;20891;-88
2021/09/11 13:32:03;;;;;;;9.60;5.93;;;;;;;;;;4939753;28;20557;-91
2021/09/11 13:34:36;;;;;;;12.23;7.05;;;;;;;;;;4951376;29;20027;-90
2021/09/11 13:37:09;;;;;;;16.50;8.02;;;;;;;;;;4918026;29;20095;-89
2021/09/11 13:39:35;;;;;;;16.02;9.10;;;;;;;;;;4935017;29;20071;-87
2021/09/11 13:42:04;;;;;;;14.02;8.05;;;;;;;;;;4934483;29;20895;-92
2021/09/11 13:44:32;;;;;;;14.18;8.07;;;;;;;;;;4942449;29;20050;-89
2021/09/11 13:46:59;;;;;;;13.98;6.68;;;;;;;;;;4928542;29;20399;-90
2021/09/11 13:49:29;;;;;;;12.70;6.55;;;;;;;;;;4900840;29;20109;-90
2021/09/11 13:51:56;;;;;;;10.15;6.22;;;;;;;;;;4901123;29;20044;-90
2021/09/11 13:54:23;;;;;;;9.80;6.07;;;;;;;;;;4933855;29;20015;-92
2021/09/11 13:56:52;;;;;;;11.30;7.25;;;;;;;;;;4932710;28;20024;-91
2021/09/11 13:59:19;;;;;;;14.20;7.03;;;;;;;;;;5006268;28;20047;-91
2021/09/11 14:01:45;;;;;;;12.25;6.97;;;;;;;;;;4976957;28;20034;-87
2021/09/11 14:04:36;;;;;;;11.18;7.00;;;;;;;;;;4992604;28;20044;-91
2021/09/11 14:07:03;;;;;;;13.00;8.13;;;;;;;;;;5006907;28;20046;-89
2021/09/11 14:09:39;;;;;;;15.02;8.45;;;;;;;;;;4993347;28;20061;-87
2021/09/11 14:12:05;;;;;;;15.82;8.90;;;;;;;;;;4979656;28;20179;-89
2021/09/11 14:14:42;;;;;;;23.40;9.65;;;;;;;;;;4992507;28;20108;-91
2021/09/11 14:17:08;;;;;;;15.32;7.90;;;;;;;;;;4991891;28;20038;-91
2021/09/11 14:19:46;;;;;;;16.98;9.52;;;;;;;;;;4997608;28;20019;-87
2021/09/11 14:22:13;;;;;;;19.65;10.18;;;;;;;;;;4977706;28;20034;-89
2021/09/11 14:24:45;;;;;;;21.95;9.95;;;;;;;;;;4995113;28;20097;-92
2021/09/11 14:27:13;;;;;;;22.58;10.63;;;;;;;;;;4997832;28;20162;-90
2021/09/11 14:29:48;;;;;;;25.63;11.30;;;;;;;;;;4968699;28;20635;-94
2021/09/11 14:32:35;;;;;;;36.97;12.20;;;;;;;;;;4999134;28;20054;-88
2021/09/11 14:35:07;;;;;;;118.15;15.82;;;;;;;;;;4997184;28;20026;-90
2021/09/11 14:37:35;;;;;;;62.40;13.10;;;;;;;;;;5009858;28;20145;-89
2021/09/11 14:40:01;;;;;;;245.60;18.25;;;;;;;;;;4993412;28;20034;-89
2021/09/11 14:42:29;;;;;;;43.60;11.45;;;;;;;;;;4991892;28;20034;-89
2021/09/11 14:44:58;;;;;;;23.58;9.60;;;;;;;;;;4990499;28;20019;-88
2021/09/11 14:47:30;;;;;;;18.85;9.70;;;;;;;;;;4973234;28;20042;-86
2021/09/11 14:49:57;;;;;;;23.13;9.80;;;;;;;;;;4968537;28;20229;-91
2021/09/11 14:52:23;;;;;;;17.27;9.10;;;;;;;;;;4994534;28;20101;-89
2021/09/11 14:54:48;;;;;;;21.90;9.98;;;;;;;;;;4978252;28;20018;-90
2021/09/11 14:57:22;;;;;;;24.52;11.40;;;;;;;;;;4993603;28;20022;-90
2021/09/11 14:59:48;;;;;;;28.30;11.50;;;;;;;;;;4979571;28;20088;-92
2021/09/11 15:02:18;;;;;;;25.75;11.50;;;;;;;;;;4995109;28;20037;-91
2021/09/11 15:04:44;;;;;;;26.33;12.15;;;;;;;;;;4990289;28;20054;-92
2021/09/11 15:07:10;;;;;;;24.60;11.98;;;;;;;;;;4992915;28;20096;-92
2021/09/11 15:09:35;;;;;;;27.10;12.32;;;;;;;;;;4976486;28;20506;-87
2021/09/11 15:12:03;;;;;;;23.90;11.40;;;;;;;;;;4976794;28;20109;-89
2021/09/11 15:14:29;;;;;;;26.23;13.20;;;;;;;;;;4965978;28;20042;-90
2021/09/11 15:16:54;;;;;;;33.08;14.57;;;;;;;;;;4981841;28;20014;-91
2021/09/11 15:19:20;;;;;;;32.38;13.50;;;;;;;;;;4979832;28;20104;-89
2021/09/11 15:21:48;;;;;;;28.63;14.02;;;;;;;;;;4984261;28;20064;-89
2021/09/11 15:24:14;;;;;;;29.73;14.35;;;;;;;;;;4967895;28;20420;-88
2021/09/11 15:26:39;;;;;;;36.40;14.93;;;;;;;;;;5015159;28;20027;-87